Time;durP1;ratioP1;P1;durP2;ratioP2;P2;SDS_P1;SDS_P2;PMS_P1;PMS_P2;Temp;Humidity;BMP_temperature;BMP_pressure;BME280_temperature;BME280_humidity;BME280_pressure;Samples;Min_cycle;Max_cycle;Signal;HPM_P1;HPM_P2
2023/04/11 00:00:37;;;;;;;2.97;2.00;;;13.80;99.90;;;;;;4868056;29;20210;-77
2023/04/11 00:03:05;;;;;;;2.00;1.90;;;13.80;99.90;;;;;;4870388;29;20267;-77
2023/04/11 00:05:33;;;;;;;2.23;2.00;;;13.80;99.90;;;;;;4868014;29;20236;-77
2023/04/11 00:08:00;;;;;;;2.20;1.70;;;13.80;99.90;;;;;;4868967;29;20722;-77
2023/04/11 00:10:27;;;;;;;2.73;2.03;;;13.80;99.90;;;;;;4871711;29;20241;-77
2023/04/11 00:12:55;;;;;;;2.57;2.37;;;13.80;99.90;;;;;;4867633;29;20222;-77
2023/04/11 00:15:23;;;;;;;2.07;1.70;;;13.70;99.90;;;;;;4866791;29;20197;-77
2023/04/11 00:17:52;;;;;;;2.47;1.80;;;13.70;99.90;;;;;;4868955;29;20285;-77
2023/04/11 00:20:19;;;;;;;2.13;1.93;;;13.70;99.90;;;;;;4867411;29;20297;-77
2023/04/11 00:22:47;;;;;;;2.00;1.90;;;13.70;99.90;;;;;;4872352;29;20271;-77
2023/04/11 00:25:14;;;;;;;2.10;1.90;;;13.70;99.90;;;;;;4873402;29;20207;-77
2023/04/11 00:27:41;;;;;;;1.80;1.70;;;13.70;99.90;;;;;;4869121;29;20285;-77
2023/04/11 00:30:08;;;;;;;2.07;1.70;;;13.60;99.90;;;;;;4870918;29;20785;-77
2023/04/11 00:32:35;;;;;;;2.77;2.23;;;13.60;99.90;;;;;;4876472;29;20231;-77
2023/04/11 00:35:02;;;;;;;1.90;1.80;;;13.50;99.90;;;;;;4875212;29;20676;-78
2023/04/11 00:37:30;;;;;;;2.20;1.90;;;13.50;99.90;;;;;;4870576;29;20224;-77
2023/04/11 00:39:58;;;;;;;2.00;1.83;;;13.40;99.90;;;;;;4870755;29;20225;-77
2023/04/11 00:42:25;;;;;;;1.80;1.70;;;13.40;99.90;;;;;;4884452;29;20228;-76
2023/04/11 00:44:52;;;;;;;1.77;1.67;;;13.40;99.90;;;;;;4871528;29;20202;-77
2023/04/11 00:47:19;;;;;;;1.87;1.77;;;13.40;99.90;;;;;;4871163;29;20229;-77
2023/04/11 00:49:46;;;;;;;3.00;1.90;;;13.30;99.90;;;;;;4871882;29;20269;-77
2023/04/11 00:52:13;;;;;;;2.60;2.10;;;13.40;99.90;;;;;;4877337;29;20213;-77
2023/04/11 00:54:40;;;;;;;1.70;1.60;;;13.40;99.90;;;;;;4881116;29;20237;-77
2023/04/11 00:57:09;;;;;;;2.10;1.90;;;13.40;99.90;;;;;;4873445;29;20226;-77
2023/04/11 00:59:36;;;;;;;3.27;1.97;;;13.50;99.90;;;;;;4877845;29;20198;-76
2023/04/11 01:02:03;;;;;;;2.47;1.87;;;13.50;99.90;;;;;;4868030;29;20229;-77
2023/04/11 01:04:30;;;;;;;1.90;1.80;;;13.50;99.90;;;;;;4875304;29;20205;-77
2023/04/11 01:07:02;;;;;;;2.20;2.10;;;13.50;99.90;;;;;;4870238;29;20637;-77
2023/04/11 01:09:30;;;;;;;3.23;1.97;;;13.50;99.90;;;;;;4866332;29;20217;-77
2023/04/11 01:11:57;;;;;;;4.27;1.90;;;13.60;99.90;;;;;;4872606;29;20206;-77
2023/04/11 01:14:27;;;;;;;2.20;2.00;;;13.60;99.90;;;;;;4869238;29;20233;-77
2023/04/11 01:16:55;;;;;;;2.40;2.00;;;13.60;99.90;;;;;;4870393;29;20230;-76
2023/04/11 01:19:24;;;;;;;2.20;2.00;;;13.60;99.90;;;;;;4880053;29;20198;-77
2023/04/11 01:21:53;;;;;;;2.20;2.00;;;13.60;99.90;;;;;;4870165;29;20217;-77
2023/04/11 01:24:22;;;;;;;3.00;1.80;;;13.60;99.90;;;;;;4867626;29;20225;-76
2023/04/11 01:26:49;;;;;;;2.00;1.80;;;13.60;99.90;;;;;;4872046;29;20206;-76
2023/04/11 01:29:16;;;;;;;2.47;2.00;;;13.60;99.90;;;;;;4864170;29;20228;-77
2023/04/11 01:31:43;;;;;;;3.27;2.10;;;13.60;99.90;;;;;;4868979;29;20580;-76
2023/04/11 01:34:13;;;;;;;2.00;1.90;;;13.60;99.90;;;;;;4870947;29;20332;-77
2023/04/11 01:36:40;;;;;;;2.40;1.97;;;13.60;99.90;;;;;;4871460;29;20198;-77
2023/04/11 01:39:07;;;;;;;2.10;1.90;;;13.60;99.90;;;;;;4870652;29;20209;-77
2023/04/11 01:41:37;;;;;;;2.10;1.90;;;13.60;99.90;;;;;;4868706;29;20201;-77
2023/04/11 01:44:04;;;;;;;2.60;2.20;;;13.60;99.90;;;;;;4869511;29;20212;-77
2023/04/11 01:46:31;;;;;;;5.00;2.10;;;13.60;99.90;;;;;;4871907;29;20257;-77
2023/04/11 01:49:00;;;;;;;2.67;2.00;;;13.60;99.90;;;;;;4875394;29;20317;-77
2023/04/11 01:51:27;;;;;;;4.20;2.20;;;13.60;99.90;;;;;;4868230;29;20318;-77
2023/04/11 01:53:54;;;;;;;3.90;2.27;;;13.60;99.90;;;;;;4869887;29;20206;-77
2023/04/11 01:56:21;;;;;;;2.00;1.90;;;13.60;99.90;;;;;;4869819;29;20193;-77
2023/04/11 01:58:49;;;;;;;2.20;2.00;;;13.60;99.90;;;;;;4869747;29;20229;-77
2023/04/11 02:01:18;;;;;;;2.90;2.10;;;13.60;99.90;;;;;;4867752;29;20202;-77
2023/04/11 02:03:45;;;;;;;2.60;2.40;;;13.60;99.90;;;;;;4874165;29;20246;-76
2023/04/11 02:06:12;;;;;;;2.67;2.17;;;13.50;99.90;;;;;;4865095;29;20239;-77
2023/04/11 02:08:39;;;;;;;2.77;2.20;;;13.50;99.90;;;;;;4873678;29;20245;-77
2023/04/11 02:11:07;;;;;;;2.57;2.30;;;13.50;99.90;;;;;;4871958;29;20194;-76
2023/04/11 02:13:34;;;;;;;3.13;2.50;;;13.50;99.90;;;;;;4870386;29;20211;-77
2023/04/11 02:16:08;;;;;;;2.80;2.33;;;13.50;99.90;;;;;;4867215;29;20211;-77
2023/04/11 02:18:37;;;;;;;2.27;1.93;;;13.50;99.90;;;;;;4868274;29;20226;-77
2023/04/11 02:21:05;;;;;;;3.47;2.50;;;13.50;99.90;;;;;;4867644;29;20213;-77
2023/04/11 02:23:32;;;;;;;2.93;2.60;;;13.50;99.90;;;;;;4866806;29;20210;-76
2023/04/11 02:25:59;;;;;;;3.30;2.27;;;13.50;99.90;;;;;;4867083;29;20228;-77
2023/04/11 02:28:28;;;;;;;2.07;1.97;;;13.40;99.90;;;;;;4869293;29;20716;-77
2023/04/11 02:30:55;;;;;;;2.53;2.27;;;13.40;99.90;;;;;;4870222;29;20225;-77
2023/04/11 02:33:23;;;;;;;4.40;2.27;;;13.30;99.90;;;;;;4870443;29;20719;-77
2023/04/11 02:35:50;;;;;;;4.70;2.53;;;13.20;99.90;;;;;;4866781;29;20270;-76
2023/04/11 02:38:17;;;;;;;6.23;5.70;;;13.10;99.90;;;;;;4869248;29;20253;-77
2023/04/11 02:40:44;;;;;;;6.43;5.97;;;13.00;99.90;;;;;;4866460;29;20205;-76
2023/04/11 02:43:11;;;;;;;5.77;5.13;;;12.90;99.90;;;;;;4871549;29;20206;-78
2023/04/11 02:45:40;;;;;;;3.47;3.17;;;12.80;99.90;;;;;;4869128;29;20279;-78
2023/04/11 02:48:07;;;;;;;2.50;2.30;;;12.80;99.90;;;;;;4877202;29;20224;-77
2023/04/11 02:50:41;;;;;;;7.03;6.53;;;12.70;99.90;;;;;;4870798;29;20697;-80
2023/04/11 02:53:08;;;;;;;2.57;2.37;;;12.60;99.90;;;;;;4863334;29;20225;-80
2023/04/11 02:55:40;;;;;;;5.33;4.53;;;12.50;99.90;;;;;;4875502;29;20197;-81
2023/04/11 02:58:07;;;;;;;6.50;5.97;;;12.40;99.90;;;;;;4879557;29;20316;-82
2023/04/11 03:00:34;;;;;;;4.17;2.60;;;12.30;99.90;;;;;;4883218;29;20202;-81
2023/04/11 03:03:06;;;;;;;2.60;2.27;;;12.20;99.90;;;;;;4880028;29;20205;-81
2023/04/11 03:05:38;;;;;;;4.03;3.73;;;12.20;99.90;;;;;;4878869;29;20217;-81
2023/04/11 03:08:07;;;;;;;2.77;2.57;;;12.10;99.90;;;;;;4882379;29;20221;-81
2023/04/11 03:10:35;;;;;;;2.87;2.50;;;12.10;99.90;;;;;;4879861;29;20641;-82
2023/04/11 03:13:03;;;;;;;2.70;2.50;;;12.00;99.90;;;;;;4880686;29;20212;-81
2023/04/11 03:15:31;;;;;;;6.73;6.23;;;11.90;99.90;;;;;;4879116;29;20211;-81
2023/04/11 03:18:00;;;;;;;3.33;3.10;;;11.90;99.90;;;;;;4880598;29;20231;-83
2023/04/11 03:20:32;;;;;;;3.77;3.47;;;11.80;99.90;;;;;;4874427;29;20249;-82
2023/04/11 03:22:59;;;;;;;3.97;3.67;;;11.70;99.90;;;;;;4878080;29;20240;-82
2023/04/11 03:25:28;;;;;;;5.27;4.97;;;11.60;99.90;;;;;;4868576;29;20205;-82
2023/04/11 03:27:55;;;;;;;6.50;6.10;;;11.60;99.90;;;;;;4870932;29;20311;-82
2023/04/11 03:30:23;;;;;;;3.50;3.30;;;11.50;99.90;;;;;;4872965;29;20247;-82
2023/04/11 03:32:51;;;;;;;3.80;3.50;;;11.50;99.90;;;;;;4865943;29;20202;-80
2023/04/11 03:35:19;;;;;;;6.20;5.80;;;11.40;99.90;;;;;;4869417;29;20237;-80
2023/04/11 03:37:48;;;;;;;6.50;6.00;;;11.30;99.90;;;;;;4872027;29;20227;-81
2023/04/11 03:40:17;;;;;;;9.73;9.03;;;11.20;99.90;;;;;;4868871;29;20234;-80
2023/04/11 03:42:50;;;;;;;6.43;6.03;;;11.20;99.90;;;;;;4871563;29;20211;-79
2023/04/11 03:45:21;;;;;;;6.70;6.30;;;11.10;99.90;;;;;;4867372;29;20251;-78
2023/04/11 03:47:51;;;;;;;6.40;6.10;;;11.00;99.90;;;;;;4868536;29;20243;-79
2023/04/11 03:50:21;;;;;;;6.30;6.00;;;11.00;99.90;;;;;;4864341;29;20224;-79
2023/04/11 03:52:54;;;;;;;6.30;5.90;;;11.00;99.90;;;;;;4876309;29;20255;-79
2023/04/11 03:55:21;;;;;;;6.93;6.53;;;10.90;99.90;;;;;;4879849;29;20702;-80
2023/04/11 03:57:49;;;;;;;6.80;6.40;;;10.90;99.90;;;;;;4879517;29;20596;-77
2023/04/11 04:00:18;;;;;;;6.50;6.10;;;10.80;99.90;;;;;;4881710;29;20206;-79
2023/04/11 04:02:56;;;;;;;6.77;6.37;;;10.80;99.90;;;;;;4882228;29;20235;-77
2023/04/11 04:05:24;;;;;;;6.50;6.20;;;10.70;99.90;;;;;;4881229;29;20215;-78
2023/04/11 04:07:52;;;;;;;6.60;6.30;;;10.60;99.90;;;;;;4881603;29;20220;-80
2023/04/11 04:10:32;;;;;;;6.90;6.50;;;10.60;99.90;;;;;;4876800;29;20227;-80
2023/04/11 04:13:00;;;;;;;7.10;6.70;;;10.60;99.90;;;;;;4882342;29;20208;-79
2023/04/11 04:15:36;;;;;;;6.90;6.50;;;10.60;99.90;;;;;;4882771;29;20247;-80
2023/04/11 04:18:03;;;;;;;6.93;6.53;;;10.60;99.90;;;;;;4882478;29;20245;-80
2023/04/11 04:20:47;;;;;;;7.00;6.60;;;10.60;99.90;;;;;;4872855;29;20262;-83
2023/04/11 04:23:16;;;;;;;6.73;6.40;;;10.60;99.90;;;;;;4872771;29;20215;-77
2023/04/11 04:26:23;;;;;;;7.20;6.70;;;10.60;99.90;;;;;;4886243;29;20233;-79
2023/04/11 04:29:03;;;;;;;6.80;6.50;;;10.60;99.90;;;;;;4913991;29;20224;-82
2023/04/11 04:31:34;;;;;;;7.13;6.73;;;10.60;99.90;;;;;;4865710;29;20251;-79
2023/04/11 04:34:08;;;;;;;7.27;6.87;;;10.60;99.90;;;;;;4878865;29;20208;-79
2023/04/11 04:36:45;;;;;;;7.20;6.80;;;10.60;99.90;;;;;;4881574;29;20261;-80
2023/04/11 04:39:16;;;;;;;7.20;6.80;;;10.70;99.90;;;;;;4871632;29;20301;-80
2023/04/11 04:41:47;;;;;;;7.30;6.90;;;10.60;99.90;;;;;;4889169;29;20209;-79
2023/04/11 04:44:16;;;;;;;6.87;6.53;;;10.60;99.90;;;;;;4871615;29;20579;-77
2023/04/11 04:46:53;;;;;;;7.47;6.97;;;10.60;99.90;;;;;;4867337;29;20284;-77
2023/04/11 04:49:22;;;;;;;7.57;7.17;;;10.50;99.90;;;;;;4864533;29;20707;-77
2023/04/11 04:51:49;;;;;;;7.63;7.23;;;10.50;99.90;;;;;;4867483;29;20217;-77
2023/04/11 04:54:18;;;;;;;7.57;7.17;;;10.40;99.90;;;;;;4870997;29;20240;-77
2023/04/11 04:56:46;;;;;;;8.00;7.50;;;10.30;99.90;;;;;;4875885;29;20201;-77
2023/04/11 04:59:15;;;;;;;6.87;6.47;;;10.20;99.90;;;;;;4865306;29;20209;-77
2023/04/11 05:01:45;;;;;;;7.43;7.03;;;10.20;99.90;;;;;;4877579;29;20234;-76
2023/04/11 05:04:13;;;;;;;7.77;7.37;;;10.10;99.90;;;;;;4865132;29;20203;-77
2023/04/11 05:06:47;;;;;;;7.67;7.27;;;10.00;99.90;;;;;;4878997;29;20206;-78
2023/04/11 05:09:15;;;;;;;7.60;7.20;;;10.00;99.90;;;;;;4874580;29;20208;-77
2023/04/11 05:11:42;;;;;;;7.53;7.03;;;9.90;99.90;;;;;;4870425;29;20606;-76
2023/04/11 05:14:09;;;;;;;7.70;7.30;;;9.90;99.90;;;;;;4865496;29;20651;-77
2023/04/11 05:16:38;;;;;;;8.30;7.70;;;9.80;99.90;;;;;;4867522;29;20209;-77
2023/04/11 05:19:06;;;;;;;8.23;7.73;;;9.80;99.90;;;;;;4868689;29;20213;-77
2023/04/11 05:21:36;;;;;;;7.80;7.40;;;9.70;99.90;;;;;;4867952;29;20202;-76
2023/04/11 05:24:03;;;;;;;7.80;7.40;;;9.70;99.90;;;;;;4876021;29;20201;-76
2023/04/11 05:26:35;;;;;;;8.07;7.57;;;9.70;99.90;;;;;;4865194;29;20244;-77
2023/04/11 05:29:02;;;;;;;8.50;7.80;;;9.60;99.90;;;;;;4874014;29;20784;-77
2023/04/11 05:31:29;;;;;;;8.10;7.70;;;9.60;99.90;;;;;;4863788;29;20218;-77
2023/04/11 05:33:57;;;;;;;8.00;7.60;;;9.50;99.90;;;;;;4867171;29;20262;-77
2023/04/11 05:36:27;;;;;;;7.70;7.30;;;9.50;99.90;;;;;;4874506;29;20252;-77
2023/04/11 05:38:54;;;;;;;7.50;7.10;;;9.50;99.90;;;;;;4873456;29;20249;-76
2023/04/11 05:41:21;;;;;;;6.93;6.60;;;9.50;99.90;;;;;;4877833;29;20201;-77
2023/04/11 05:43:48;;;;;;;6.93;6.63;;;9.40;99.90;;;;;;4870308;29;20639;-77
2023/04/11 05:46:15;;;;;;;7.00;6.70;;;9.40;99.90;;;;;;4866125;29;20306;-77
2023/04/11 05:48:41;;;;;;;7.10;6.70;;;9.30;99.90;;;;;;4866791;29;20665;-77
2023/04/11 05:51:09;;;;;;;7.50;7.00;;;9.40;99.90;;;;;;4869318;29;20763;-77
2023/04/11 05:53:37;;;;;;;7.50;7.10;;;9.30;99.90;;;;;;4882951;29;20197;-77
2023/04/11 05:56:04;;;;;;;6.70;6.30;;;9.30;99.90;;;;;;4880886;29;20260;-77
2023/04/11 05:58:33;;;;;;;7.10;6.70;;;9.30;99.90;;;;;;4877171;29;20218;-77
2023/04/11 06:00:59;;;;;;;7.00;6.63;;;9.30;99.90;;;;;;4881924;29;20225;-77
2023/04/11 06:03:26;;;;;;;6.90;6.50;;;9.30;99.90;;;;;;4878089;29;20238;-77
2023/04/11 06:05:53;;;;;;;6.70;6.40;;;9.30;99.90;;;;;;4881926;29;20233;-77
2023/04/11 06:08:21;;;;;;;6.60;6.20;;;9.30;99.90;;;;;;4879284;29;20282;-77
2023/04/11 06:10:49;;;;;;;6.70;6.30;;;9.20;99.90;;;;;;4877769;29;20263;-77
2023/04/11 06:13:16;;;;;;;6.57;6.20;;;9.20;99.90;;;;;;4881349;29;20197;-77
2023/04/11 06:15:42;;;;;;;7.10;6.60;;;9.10;99.90;;;;;;4880044;29;20641;-77
2023/04/11 06:18:09;;;;;;;6.70;6.30;;;9.10;99.90;;;;;;4877916;29;20255;-77
2023/04/11 06:20:36;;;;;;;7.23;6.83;;;9.00;99.90;;;;;;4895930;29;20205;-77
2023/04/11 06:23:03;;;;;;;7.13;6.73;;;8.90;99.90;;;;;;4879976;29;20680;-77
2023/04/11 06:25:30;;;;;;;7.60;7.20;;;8.90;99.90;;;;;;4880646;29;20205;-77
2023/04/11 06:27:58;;;;;;;7.33;6.80;;;8.90;99.90;;;;;;4877048;29;20233;-77
2023/04/11 06:30:25;;;;;;;7.43;6.93;;;8.90;99.90;;;;;;4882209;29;20221;-77
2023/04/11 06:32:51;;;;;;;7.27;6.70;;;8.90;99.90;;;;;;4878215;29;20261;-77
2023/04/11 06:35:23;;;;;;;7.57;7.13;;;8.80;99.90;;;;;;4880728;29;20772;-77
2023/04/11 06:37:50;;;;;;;7.47;6.90;;;8.80;99.90;;;;;;4879287;29;20221;-74
2023/04/11 06:40:18;;;;;;;7.60;7.00;;;8.90;99.90;;;;;;4874043;29;20243;-79
2023/04/11 06:42:45;;;;;;;8.10;7.50;;;8.90;99.90;;;;;;4862990;29;20206;-80
2023/04/11 06:45:14;;;;;;;7.60;7.00;;;8.90;99.90;;;;;;4866038;29;20217;-80
2023/04/11 06:47:41;;;;;;;5.00;4.50;;;8.90;99.90;;;;;;4865860;29;20238;-80
2023/04/11 06:50:08;;;;;;;7.50;7.10;;;8.90;99.90;;;;;;4867948;29;20226;-80
2023/04/11 06:52:35;;;;;;;7.07;6.67;;;9.00;99.90;;;;;;4870349;29;20209;-80
2023/04/11 06:55:02;;;;;;;7.23;6.83;;;9.00;99.90;;;;;;4871947;29;20252;-78
2023/04/11 06:57:29;;;;;;;7.50;7.00;;;9.00;99.90;;;;;;4875962;29;20819;-76
2023/04/11 06:59:55;;;;;;;6.97;6.57;;;9.00;99.90;;;;;;4866903;29;20205;-76
2023/04/11 07:02:24;;;;;;;5.70;5.40;;;9.10;99.90;;;;;;4863614;29;20683;-76
2023/04/11 07:04:51;;;;;;;7.40;6.90;;;9.20;99.90;;;;;;4864224;29;20217;-76
2023/04/11 07:07:18;;;;;;;6.83;6.33;;;9.20;99.90;;;;;;4873071;29;20232;-77
2023/04/11 07:09:46;;;;;;;6.13;5.73;;;9.10;99.90;;;;;;4861978;29;20213;-76
2023/04/11 07:12:13;;;;;;;3.63;3.30;;;9.20;99.90;;;;;;4886055;29;20212;-77
2023/04/11 07:14:39;;;;;;;3.90;3.60;;;9.30;99.90;;;;;;4904107;29;20693;-77
2023/04/11 07:17:06;;;;;;;4.40;4.00;;;9.30;99.90;;;;;;4884159;29;20233;-78
2023/04/11 07:19:34;;;;;;;3.40;3.20;;;9.40;99.90;;;;;;4878033;29;20211;-77
2023/04/11 07:22:01;;;;;;;2.77;2.57;;;9.60;99.90;;;;;;4878335;29;20631;-76
2023/04/11 07:24:29;;;;;;;7.00;6.60;;;9.70;99.90;;;;;;4877164;29;20748;-76
2023/04/11 07:26:57;;;;;;;2.40;2.00;;;9.80;99.90;;;;;;4875723;29;20210;-76
2023/04/11 07:29:24;;;;;;;1.90;1.80;;;9.80;99.90;;;;;;4875861;29;20227;-76
2023/04/11 07:31:51;;;;;;;2.30;2.10;;;9.90;99.90;;;;;;4877545;29;20225;-76
2023/04/11 07:34:17;;;;;;;2.37;1.80;;;9.90;99.90;;;;;;4877604;29;20194;-77
2023/04/11 07:36:46;;;;;;;2.80;1.77;;;9.90;99.90;;;;;;4880518;29;20283;-78
2023/04/11 07:39:14;;;;;;;2.63;2.43;;;9.90;99.90;;;;;;4881336;29;20300;-77
2023/04/11 07:41:40;;;;;;;5.10;4.57;;;10.00;99.90;;;;;;4882573;29;20202;-77
2023/04/11 07:44:08;;;;;;;4.60;3.80;;;10.10;99.90;;;;;;4881261;29;20722;-78
2023/04/11 07:46:35;;;;;;;2.03;1.90;;;10.20;99.90;;;;;;4881955;29;20205;-79
2023/04/11 07:49:02;;;;;;;2.70;1.90;;;10.20;99.90;;;;;;4877156;29;20233;-78
2023/04/11 07:51:28;;;;;;;4.37;2.40;;;10.30;99.90;;;;;;4880567;29;20627;-79
2023/04/11 07:53:56;;;;;;;3.10;2.70;;;10.40;99.90;;;;;;4881613;29;20261;-77
2023/04/11 07:56:23;;;;;;;5.47;5.13;;;10.50;99.90;;;;;;4879348;29;20756;-78
2023/04/11 07:58:50;;;;;;;3.00;1.90;;;10.80;99.90;;;;;;4881668;29;20232;-79
2023/04/11 08:01:21;;;;;;;3.10;2.17;;;11.00;99.90;;;;;;4880987;29;20195;-78
2023/04/11 08:03:48;;;;;;;4.20;2.10;;;11.30;99.90;;;;;;4876586;29;20293;-78
2023/04/11 08:06:15;;;;;;;4.40;2.77;;;11.50;99.90;;;;;;4877501;29;20204;-77
2023/04/11 08:08:42;;;;;;;3.43;2.30;;;12.00;99.90;;;;;;4876599;29;20230;-79
2023/04/11 08:11:10;;;;;;;4.33;2.70;;;12.20;99.90;;;;;;4875113;29;20206;-78
2023/04/11 08:13:37;;;;;;;3.93;2.20;;;12.20;99.90;;;;;;4893550;29;20217;-79
2023/04/11 08:16:06;;;;;;;2.67;2.00;;;12.10;99.90;;;;;;4870341;29;20198;-78
2023/04/11 08:18:34;;;;;;;5.17;2.00;;;12.00;99.90;;;;;;4873010;29;20229;-78
2023/04/11 08:21:01;;;;;;;2.80;2.00;;;11.80;99.90;;;;;;4875585;29;20220;-79
2023/04/11 08:23:28;;;;;;;4.40;2.60;;;11.60;99.90;;;;;;4881243;29;20211;-79
2023/04/11 08:25:55;;;;;;;6.70;2.87;;;11.40;99.90;;;;;;4877060;29;20240;-78
2023/04/11 08:28:24;;;;;;;4.23;2.93;;;11.30;99.90;;;;;;4877133;29;20217;-78
2023/04/11 08:30:54;;;;;;;3.30;2.80;;;11.20;99.90;;;;;;4882905;29;20290;-79
2023/04/11 08:33:23;;;;;;;5.80;3.10;;;11.20;99.90;;;;;;4875354;29;20310;-78
2023/04/11 08:35:50;;;;;;;3.87;2.60;;;11.10;99.90;;;;;;4882494;29;20592;-79
2023/04/11 08:38:17;;;;;;;4.70;2.70;;;11.00;99.90;;;;;;4885592;29;20244;-78
2023/04/11 08:40:44;;;;;;;2.77;2.57;;;11.00;99.90;;;;;;4879310;29;20204;-78
2023/04/11 08:43:11;;;;;;;3.20;2.60;;;11.10;99.90;;;;;;4880121;29;20207;-76
2023/04/11 08:45:40;;;;;;;4.37;2.90;;;11.20;99.90;;;;;;4879079;29;20665;-77
2023/04/11 08:48:06;;;;;;;3.03;2.63;;;11.30;99.90;;;;;;4882639;29;20227;-77
2023/04/11 08:50:33;;;;;;;4.70;2.40;;;11.50;99.90;;;;;;4880928;29;20209;-77
2023/04/11 08:53:02;;;;;;;5.97;2.47;;;11.70;99.90;;;;;;4877508;29;20636;-77
2023/04/11 08:55:29;;;;;;;6.27;2.40;;;12.10;99.90;;;;;;4882230;29;20201;-76
2023/04/11 08:57:58;;;;;;;5.17;2.20;;;12.70;99.90;;;;;;4882047;29;20288;-77
2023/04/11 09:00:27;;;;;;;3.30;2.37;;;12.80;99.90;;;;;;4881802;29;20197;-76
2023/04/11 09:02:57;;;;;;;4.70;2.33;;;13.10;99.90;;;;;;4870353;29;20212;-77
2023/04/11 09:05:31;;;;;;;4.60;2.80;;;13.30;99.90;;;;;;4878438;29;20266;-77
2023/04/11 09:07:59;;;;;;;3.53;2.30;;;13.50;99.90;;;;;;4884892;29;20222;-77
2023/04/11 09:10:27;;;;;;;5.23;2.50;;;13.80;99.90;;;;;;4883393;29;20203;-78
2023/04/11 09:12:55;;;;;;;4.17;2.00;;;14.20;99.90;;;;;;4885052;29;20650;-77
2023/04/11 09:15:23;;;;;;;5.67;2.30;;;14.60;99.90;;;;;;4871421;29;20201;-77
2023/04/11 09:17:51;;;;;;;3.77;2.23;;;14.90;99.90;;;;;;4902460;29;20235;-76
2023/04/11 09:20:24;;;;;;;5.60;2.77;;;15.10;99.90;;;;;;4864585;29;20209;-76
2023/04/11 09:22:52;;;;;;;3.50;2.40;;;15.20;99.90;;;;;;4873546;29;20262;-77
2023/04/11 09:25:19;;;;;;;3.03;2.00;;;15.50;99.90;;;;;;4880740;29;20260;-77
2023/04/11 09:30:28;;;;;;;4.87;2.20;;;15.60;99.90;;;;;;1275452;26;20310;-75
2023/04/11 09:32:54;;;;;;;5.83;2.30;;;15.40;99.90;;;;;;4933979;29;20230;-76
2023/04/11 09:35:27;;;;;;;4.87;2.70;;;15.50;99.90;;;;;;4935436;29;20218;-76
2023/04/11 09:37:55;;;;;;;3.93;2.07;;;15.60;99.90;;;;;;4931701;29;20224;-76
2023/04/11 09:40:24;;;;;;;4.40;2.37;;;15.70;99.90;;;;;;4915776;29;20239;-76
2023/04/11 09:42:57;;;;;;;5.93;3.30;;;15.70;99.90;;;;;;4927342;29;20271;-76
2023/04/11 09:45:25;;;;;;;5.23;2.70;;;15.90;99.90;;;;;;4925183;29;20620;-76
2023/04/11 09:47:54;;;;;;;3.97;2.23;;;16.00;99.90;;;;;;4916423;29;20227;-76
2023/04/11 09:50:23;;;;;;;5.57;2.50;;;15.90;99.90;;;;;;4913983;29;20228;-76
2023/04/11 09:52:51;;;;;;;5.73;2.33;;;15.60;99.90;;;;;;4909319;29;20243;-79
2023/04/11 09:55:20;;;;;;;5.27;2.30;;;15.40;99.90;;;;;;4909332;29;20204;-81
2023/04/11 09:57:48;;;;;;;4.03;2.33;;;15.10;99.90;;;;;;4910070;29;20275;-76
2023/04/11 10:00:20;;;;;;;4.17;2.30;;;14.90;99.90;;;;;;4916391;29;20212;-76
2023/04/11 10:02:49;;;;;;;4.20;2.37;;;14.60;99.90;;;;;;4911929;29;20203;-76
2023/04/11 10:05:17;;;;;;;3.83;3.10;;;14.50;99.90;;;;;;4914923;29;20209;-76
2023/04/11 10:07:47;;;;;;;3.63;2.63;;;14.70;99.90;;;;;;4909826;29;20222;-76
2023/04/11 10:10:22;;;;;;;2.90;2.43;;;15.00;99.90;;;;;;4922266;29;20256;-75
2023/04/11 10:12:50;;;;;;;2.67;2.33;;;15.40;99.90;;;;;;4914710;29;20219;-76
2023/04/11 10:15:18;;;;;;;5.03;2.77;;;15.60;99.90;;;;;;4916785;29;20200;-79
2023/04/11 10:18:09;;;;;;;4.50;2.80;;;15.60;99.90;;;;;;4910363;29;20227;-76
2023/04/11 10:20:44;;;;;;;3.47;2.73;;;15.60;99.90;;;;;;4914031;29;20235;-76
2023/04/11 10:23:13;;;;;;;3.50;2.70;;;15.40;99.90;;;;;;4913367;29;20195;-77
2023/04/11 10:25:57;;;;;;;5.00;2.43;;;15.00;99.90;;;;;;4910883;29;20207;-77
2023/04/11 10:28:36;;;;;;;2.23;2.03;;;14.50;99.90;;;;;;4912669;29;20227;-78
2023/04/11 10:31:06;;;;;;;5.27;2.20;;;14.10;99.90;;;;;;4909621;29;20228;-76
2023/04/11 10:33:34;;;;;;;3.90;2.50;;;13.70;99.90;;;;;;4909032;29;20210;-76
2023/04/11 10:36:04;;;;;;;2.90;2.43;;;13.50;99.90;;;;;;4912594;29;20205;-76
2023/04/11 10:38:49;;;;;;;2.53;2.33;;;13.60;99.90;;;;;;4911853;29;20318;-76
2023/04/11 10:41:18;;;;;;;2.33;2.10;;;13.80;99.90;;;;;;4910101;29;20231;-76
2023/04/11 10:43:45;;;;;;;3.07;2.50;;;14.00;99.90;;;;;;4914161;29;20207;-77
2023/04/11 10:46:20;;;;;;;5.70;2.30;;;14.20;99.90;;;;;;4912653;29;20216;-76
2023/04/11 10:48:57;;;;;;;2.40;2.20;;;14.50;99.90;;;;;;4909183;29;20235;-77
2023/04/11 10:51:25;;;;;;;3.90;2.20;;;14.80;99.90;;;;;;4913015;29;20212;-77
2023/04/11 10:53:57;;;;;;;3.03;2.10;;;15.10;99.90;;;;;;4911119;29;20672;-76
2023/04/11 10:56:56;;;;;;;2.90;1.90;;;15.30;99.90;;;;;;4910532;29;20201;-76
2023/04/11 10:59:58;;;;;;;3.13;2.10;;;15.50;99.90;;;;;;4909142;29;20203;-78
2023/04/11 11:02:39;;;;;;;5.20;2.40;;;15.70;99.90;;;;;;4906889;29;20203;-76
2023/04/11 11:05:22;;;;;;;5.13;2.27;;;15.70;99.90;;;;;;4913009;29;20208;-77
2023/04/11 11:07:51;;;;;;;6.43;2.43;;;15.70;99.90;;;;;;4909436;29;20231;-77
2023/04/11 11:10:42;;;;;;;4.03;2.13;;;15.60;99.90;;;;;;4916525;29;20207;-77
2023/04/11 11:13:10;;;;;;;2.87;2.10;;;15.80;99.90;;;;;;4911795;29;20219;-78
2023/04/11 11:15:37;;;;;;;3.97;2.50;;;16.00;99.90;;;;;;4914508;29;20771;-77
2023/04/11 11:18:07;;;;;;;2.83;1.90;;;16.00;99.90;;;;;;4911195;29;20224;-76
2023/04/11 11:20:35;;;;;;;3.73;2.00;;;16.00;99.90;;;;;;4908003;29;20250;-77
2023/04/11 11:23:03;;;;;;;5.57;2.40;;;15.90;99.90;;;;;;4913119;29;20204;-77
2023/04/11 11:25:30;;;;;;;3.27;2.07;;;15.90;99.90;;;;;;4916090;29;20663;-77
2023/04/11 11:28:06;;;;;;;3.50;2.00;;;15.80;99.90;;;;;;4912013;29;20224;-77
2023/04/11 11:30:34;;;;;;;4.83;1.90;;;15.70;99.90;;;;;;4910184;29;20211;-77
2023/04/11 11:33:16;;;;;;;2.57;1.87;;;15.50;99.90;;;;;;4909141;29;20275;-77
2023/04/11 11:35:44;;;;;;;2.47;2.07;;;15.40;99.90;;;;;;4908565;29;20563;-77
2023/04/11 11:38:12;;;;;;;2.93;2.23;;;15.50;99.90;;;;;;4910451;29;20699;-76
2023/04/11 11:40:39;;;;;;;4.63;2.30;;;15.50;99.90;;;;;;4912427;29;20703;-77
2023/04/11 11:43:07;;;;;;;4.30;2.27;;;15.60;99.90;;;;;;4912372;29;20197;-77
2023/04/11 11:45:34;;;;;;;3.33;2.20;;;15.50;99.90;;;;;;4915032;29;20571;-77
2023/04/11 11:48:01;;;;;;;4.90;2.27;;;15.50;99.90;;;;;;4913019;29;20223;-81
2023/04/11 11:50:29;;;;;;;4.20;2.10;;;15.40;99.90;;;;;;4911140;29;20608;-79
2023/04/11 11:53:10;;;;;;;2.67;2.10;;;15.40;99.90;;;;;;4908699;29;20309;-80
2023/04/11 11:55:37;;;;;;;2.77;2.10;;;15.30;99.90;;;;;;4916434;29;20200;-81
2023/04/11 11:58:04;;;;;;;4.03;2.10;;;15.20;99.90;;;;;;4912861;29;20223;-80
2023/04/11 12:00:37;;;;;;;2.67;1.93;;;15.20;99.90;;;;;;4913696;29;20663;-79
2023/04/11 12:03:05;;;;;;;2.30;1.87;;;15.20;99.90;;;;;;4914530;29;20192;-79
2023/04/11 12:05:33;;;;;;;3.73;2.07;;;15.10;99.90;;;;;;4915395;29;20703;-79
2023/04/11 12:08:03;;;;;;;4.83;2.40;;;15.20;99.90;;;;;;4912069;29;20247;-80
2023/04/11 12:10:38;;;;;;;2.17;1.83;;;15.30;99.90;;;;;;4910760;29;20222;-80
2023/04/11 12:13:13;;;;;;;2.20;2.00;;;15.30;99.90;;;;;;4922245;29;20220;-79
2023/04/11 12:15:45;;;;;;;3.70;2.17;;;15.50;99.90;;;;;;4921990;29;20196;-79
2023/04/11 12:18:12;;;;;;;3.87;2.00;;;15.60;99.90;;;;;;4924286;29;20247;-79
2023/04/11 12:20:39;;;;;;;3.17;2.03;;;15.60;99.90;;;;;;4922999;29;20208;-78
2023/04/11 12:23:06;;;;;;;3.93;2.20;;;15.70;99.90;;;;;;4926803;29;20207;-82
2023/04/11 12:25:33;;;;;;;3.53;1.90;;;15.90;99.90;;;;;;4922403;29;20212;-82
2023/04/11 12:28:00;;;;;;;3.80;2.20;;;15.90;99.90;;;;;;4915390;29;20224;-78
2023/04/11 12:30:26;;;;;;;4.23;2.30;;;16.00;99.90;;;;;;4920265;29;20224;-78
2023/04/11 12:32:55;;;;;;;11.33;3.00;;;16.00;99.90;;;;;;4924134;29;20224;-78
2023/04/11 12:35:21;;;;;;;5.83;2.43;;;15.90;99.90;;;;;;4925996;29;20227;-78
2023/04/11 12:37:48;;;;;;;3.53;1.90;;;15.90;99.90;;;;;;4920197;29;20239;-77
2023/04/11 12:40:15;;;;;;;1.83;1.70;;;15.70;99.90;;;;;;4929474;29;20208;-77
2023/04/11 12:42:43;;;;;;;3.67;2.30;;;15.70;99.90;;;;;;4921740;29;20200;-78
2023/04/11 12:45:11;;;;;;;3.17;2.50;;;15.70;99.90;;;;;;4919600;29;20208;-77
2023/04/11 12:47:39;;;;;;;4.90;2.30;;;15.90;99.90;;;;;;4913741;29;20730;-77
2023/04/11 12:50:08;;;;;;;5.87;2.40;;;15.90;99.90;;;;;;4918941;29;20204;-78
2023/04/11 12:52:35;;;;;;;2.50;2.20;;;16.10;99.90;;;;;;4920415;29;20216;-78
2023/04/11 12:55:02;;;;;;;2.70;2.27;;;16.20;99.90;;;;;;4922776;29;20211;-78
2023/04/11 12:57:29;;;;;;;3.23;2.20;;;16.30;99.90;;;;;;4910511;29;20239;-76
2023/04/11 12:59:56;;;;;;;2.07;1.83;;;16.10;99.90;;;;;;4909579;29;20239;-77